Time;durP1;ratioP1;P1;durP2;ratioP2;P2;SDS_P1;SDS_P2;PMS_P1;PMS_P2;Temp;Humidity;BMP_temperature;BMP_pressure;BME280_temperature;BME280_humidity;BME280_pressure;Samples;Min_cycle;Max_cycle;Signal;HPM_P1;HPM_P2
2022/10/09 00:00:32;;;;;;;6.22;3.03;;;;;;;9.36;59.93;101765.41;5028621;28;20036;-32
2022/10/09 00:02:58;;;;;;;4.73;3.23;;;;;;;9.31;60.08;101761.84;5049181;28;20025;-32
2022/10/09 00:05:25;;;;;;;6.32;2.83;;;;;;;9.29;59.91;101767.06;5042254;28;20328;-32
2022/10/09 00:07:51;;;;;;;4.68;3.22;;;;;;;9.24;60.14;101771.41;5052298;28;20032;-32
2022/10/09 00:10:16;;;;;;;5.30;3.47;;;;;;;9.20;60.13;101773.09;5051893;28;20048;-32
2022/10/09 00:12:42;;;;;;;4.53;2.97;;;;;;;9.17;60.23;101775.66;5034698;28;20071;-32
2022/10/09 00:15:07;;;;;;;5.07;2.77;;;;;;;9.16;60.17;101783.53;5034533;28;20029;-32
2022/10/09 00:17:33;;;;;;;4.78;2.85;;;;;;;9.12;60.33;101780.00;5034019;28;20279;-32
2022/10/09 00:19:58;;;;;;;5.43;3.13;;;;;;;9.09;60.28;101772.94;5051546;28;20033;-32
2022/10/09 00:22:23;;;;;;;6.30;3.05;;;;;;;9.06;60.36;101778.16;5044882;28;20287;-32
2022/10/09 00:24:49;;;;;;;4.65;2.70;;;;;;;9.03;60.30;101788.63;5037116;28;20116;-32
2022/10/09 00:27:14;;;;;;;5.17;2.87;;;;;;;9.01;60.34;101789.47;5051760;28;20021;-32
2022/10/09 00:29:39;;;;;;;5.10;2.92;;;;;;;8.96;60.66;101792.03;5054906;28;20275;-32
2022/10/09 00:32:05;;;;;;;5.13;2.95;;;;;;;8.93;60.52;101781.44;5052099;28;20037;-32
2022/10/09 00:34:30;;;;;;;6.13;3.10;;;;;;;8.88;60.63;101778.75;5042325;28;20435;-32
2022/10/09 00:36:56;;;;;;;4.00;3.08;;;;;;;8.85;60.56;101782.25;5033902;28;20758;-32
2022/10/09 00:39:21;;;;;;;5.10;3.03;;;;;;;8.84;60.70;101798.88;5075011;22;20481;-27
2022/10/09 00:41:47;;;;;;;4.72;3.35;;;;;;;8.79;60.58;101790.03;5088791;28;20028;-27
2022/10/09 00:44:46;;;;;;;6.10;3.00;;;;;;;8.79;60.47;101800.53;5089118;28;20016;-27
2022/10/09 00:47:40;;;;;;;4.00;2.80;;;;;;;8.76;60.82;101804.84;5078607;28;20067;-27
2022/10/09 00:50:20;;;;;;;4.72;2.60;;;;;;;8.72;60.66;101798.66;5086096;28;20032;-27
2022/10/09 00:52:46;;;;;;;5.03;2.80;;;;;;;8.69;60.58;101798.59;5077005;28;20023;-27
2022/10/09 00:55:12;;;;;;;4.00;2.78;;;;;;;8.67;60.56;101806.47;5054222;28;20092;-27
2022/10/09 00:57:39;;;;;;;3.95;2.83;;;;;;;8.65;60.54;101802.06;5091750;28;20016;-27
2022/10/09 01:00:08;;;;;;;4.50;2.80;;;;;;;8.62;60.56;101804.63;5088742;28;20085;-27
2022/10/09 01:02:33;;;;;;;5.32;2.90;;;;;;;8.59;60.49;101803.72;5089264;28;20034;-27
2022/10/09 01:04:59;;;;;;;4.25;2.85;;;;;;;8.57;60.63;101800.16;5083087;28;20028;-27
2022/10/09 01:07:37;;;;;;;4.45;3.00;;;;;;;8.54;60.68;101812.41;5091548;28;20025;-27
2022/10/09 01:10:02;;;;;;;3.83;2.65;;;;;;;8.50;60.50;101808.78;5070784;28;20110;-27
2022/10/09 01:12:32;;;;;;;4.20;2.60;;;;;;;8.47;60.71;101806.97;5087560;28;20107;-27
2022/10/09 01:15:06;;;;;;;5.53;3.20;;;;;;;8.46;60.61;101812.22;5078207;28;20020;-27
2022/10/09 01:17:40;;;;;;;3.75;2.38;;;;;;;8.41;60.61;101809.47;5082935;28;20447;-27
2022/10/09 01:20:11;;;;;;;3.30;2.72;;;;;;;8.38;61.04;101808.56;5079302;28;20386;-27
2022/10/09 01:22:55;;;;;;;4.22;2.67;;;;;;;8.36;60.89;101811.16;5090903;28;20035;-27
2022/10/09 01:25:34;;;;;;;3.78;2.60;;;;;;;8.33;60.84;101812.00;5085300;28;20551;-27
2022/10/09 01:28:01;;;;;;;4.05;2.42;;;;;;;8.30;60.90;101806.66;5069154;28;20041;-27
2022/10/09 01:30:27;;;;;;;3.42;2.40;;;;;;;8.28;60.73;101813.66;5064366;28;20107;-27
2022/10/09 01:32:53;;;;;;;3.83;2.72;;;;;;;8.26;60.82;101810.09;5052932;28;20381;-27
2022/10/09 01:35:19;;;;;;;4.45;2.60;;;;;;;8.25;60.63;101808.34;5072156;28;20170;-27
2022/10/09 01:37:46;;;;;;;4.13;2.38;;;;;;;8.22;60.78;101805.66;5087806;28;20518;-27
2022/10/09 01:40:13;;;;;;;3.42;2.42;;;;;;;8.20;60.76;101812.59;5089109;28;20394;-27
2022/10/09 01:42:39;;;;;;;3.97;2.50;;;;;;;8.18;61.06;101814.34;5066200;28;20170;-27
2022/10/09 01:45:05;;;;;;;4.15;2.65;;;;;;;8.15;60.67;101816.91;5081857;28;20499;-27
2022/10/09 01:47:30;;;;;;;5.05;2.70;;;;;;;8.13;60.76;101823.88;5088385;28;20044;-27
2022/10/09 01:50:12;;;;;;;4.05;2.50;;;;;;;8.12;60.76;101811.56;5086810;28;20051;-27
2022/10/09 01:52:48;;;;;;;4.15;2.53;;;;;;;8.09;60.91;101815.94;5091029;28;20450;-27
2022/10/09 01:55:32;;;;;;;3.60;2.80;;;;;;;8.05;60.96;101819.34;5072860;28;20135;-27
2022/10/09 01:58:22;;;;;;;3.95;2.50;;;;;;;8.03;60.81;101818.44;5085745;28;20038;-27
2022/10/09 02:01:07;;;;;;;4.75;2.60;;;;;;;8.01;60.83;101817.53;5062106;28;20043;-27
2022/10/09 02:03:34;;;;;;;5.00;2.47;;;;;;;7.98;60.96;101821.81;5074649;28;20085;-27
2022/10/09 02:06:01;;;;;;;4.25;2.75;;;;;;;7.94;61.02;101823.50;5075162;28;20108;-27
2022/10/09 02:08:27;;;;;;;3.72;2.45;;;;;;;7.93;60.75;101821.72;5051429;28;20123;-27
2022/10/09 02:10:54;;;;;;;3.75;2.20;;;;;;;7.90;60.79;101816.41;5076382;28;20036;-27
2022/10/09 02:13:20;;;;;;;3.90;2.30;;;;;;;7.89;60.82;101820.78;5093516;28;20019;-27
2022/10/09 02:16:06;;;;;;;3.85;2.67;;;;;;;7.85;61.00;101812.78;5091493;28;20048;-27
2022/10/09 02:18:46;;;;;;;3.47;2.22;;;;;;;7.84;60.76;101819.81;5071699;28;20107;-27
2022/10/09 02:21:14;;;;;;;5.57;2.55;;;;;;;7.83;60.87;101818.00;5087258;28;20482;-27
2022/10/09 02:23:41;;;;;;;3.50;2.25;;;;;;;7.79;61.08;101819.69;5089998;28;20028;-27
2022/10/09 02:26:08;;;;;;;4.05;2.25;;;;;;;7.76;61.11;101819.63;5092509;28;20410;-27
2022/10/09 02:28:33;;;;;;;3.58;2.33;;;;;;;7.75;60.70;101823.13;5091408;28;20020;-27
2022/10/09 02:31:21;;;;;;;4.55;2.53;;;;;;;7.73;61.10;101821.31;5072756;28;20031;-27
2022/10/09 02:33:54;;;;;;;4.82;2.55;;;;;;;7.72;60.87;101828.31;5082636;28;20028;-27
2022/10/09 02:36:19;;;;;;;3.30;2.40;;;;;;;7.68;61.11;101829.97;5090308;28;20434;-27
2022/10/09 02:38:45;;;;;;;4.00;2.58;;;;;;;7.66;60.85;101829.06;5091312;28;20107;-27
2022/10/09 02:41:10;;;;;;;4.28;2.42;;;;;;;7.64;61.19;101835.13;5088652;28;20398;-27
2022/10/09 02:43:35;;;;;;;3.70;2.40;;;;;;;7.59;60.73;101827.16;5089461;28;20024;-27
2022/10/09 02:46:00;;;;;;;3.63;2.30;;;;;;;7.58;60.88;101826.25;5086890;28;20308;-27
2022/10/09 02:48:26;;;;;;;4.03;2.42;;;;;;;7.55;61.23;101831.47;5093915;28;20077;-27
2022/10/09 02:50:51;;;;;;;3.78;2.45;;;;;;;7.54;60.68;101837.53;5093240;28;20069;-27
2022/10/09 02:53:16;;;;;;;3.35;2.40;;;;;;;7.52;61.29;101830.50;5092540;28;20027;-27
2022/10/09 02:55:42;;;;;;;4.45;2.60;;;;;;;7.51;60.89;101833.97;5089263;28;20035;-27
2022/10/09 02:58:07;;;;;;;4.25;2.55;;;;;;;7.50;61.05;101838.31;5084500;28;20417;-27
2022/10/09 03:00:32;;;;;;;3.50;2.65;;;;;;;7.46;60.98;101836.50;5091608;28;20065;-27
2022/10/09 03:02:58;;;;;;;3.60;2.15;;;;;;;7.45;61.10;101834.72;5084758;28;20103;-27
2022/10/09 03:05:23;;;;;;;4.07;2.35;;;;;;;7.41;61.19;101835.50;5091358;28;20031;-27
2022/10/09 03:07:51;;;;;;;3.25;2.20;;;;;;;7.39;61.20;101831.94;5068913;28;20031;-27
2022/10/09 03:10:18;;;;;;;3.95;2.47;;;;;;;7.38;61.19;101827.56;5093764;28;20111;-27
2022/10/09 03:12:44;;;;;;;4.85;2.63;;;;;;;7.36;61.02;101834.50;5091228;28;20051;-27
2022/10/09 03:15:09;;;;;;;3.40;2.40;;;;;;;7.30;61.18;101830.88;5092068;28;20062;-27
2022/10/09 03:17:35;;;;;;;3.78;2.33;;;;;;;7.30;61.05;101830.88;5081058;28;20028;-27
2022/10/09 03:20:00;;;;;;;4.43;2.45;;;;;;;7.27;60.75;101836.06;5074020;28;20028;-27
2022/10/09 03:22:25;;;;;;;3.87;2.70;;;;;;;7.26;61.04;101842.16;5084647;28;20497;-27
2022/10/09 03:24:51;;;;;;;3.80;2.50;;;;;;;7.25;60.79;101840.41;5091313;28;20766;-27
2022/10/09 03:27:16;;;;;;;3.30;2.10;;;;;;;7.21;61.04;101843.81;5091222;28;20047;-27
2022/10/09 03:29:41;;;;;;;2.92;2.08;;;;;;;7.19;61.22;101833.28;5064760;28;20036;-27
2022/10/09 03:32:07;;;;;;;4.10;2.50;;;;;;;7.17;61.16;101837.59;5088097;28;20162;-27
2022/10/09 03:34:32;;;;;;;4.00;2.20;;;;;;;7.15;61.08;101844.56;5090385;28;20028;-27
2022/10/09 03:36:58;;;;;;;3.13;2.33;;;;;;;7.14;61.42;101847.13;5066671;28;20038;-27
2022/10/09 03:39:23;;;;;;;4.57;2.80;;;;;;;7.11;61.45;101840.09;5091435;28;20042;-27
2022/10/09 03:41:48;;;;;;;4.13;2.58;;;;;;;7.09;61.31;101841.78;5091065;28;20286;-27
2022/10/09 03:44:14;;;;;;;4.68;3.03;;;;;;;7.09;61.28;101847.00;5074880;28;20271;-27
2022/10/09 03:46:39;;;;;;;3.38;2.45;;;;;;;7.08;60.91;101847.88;5087685;28;20429;-27
2022/10/09 03:49:04;;;;;;;5.05;3.10;;;;;;;7.05;61.19;101855.66;5082433;28;20104;-27
2022/10/09 03:51:30;;;;;;;4.72;3.05;;;;;;;7.04;61.23;101857.38;5092883;28;20042;-27
2022/10/09 03:53:55;;;;;;;5.40;2.80;;;;;;;7.01;61.06;101859.94;5086313;28;20049;-27
2022/10/09 03:56:20;;;;;;;6.05;2.85;;;;;;;6.99;61.29;101856.41;5091471;28;20082;-27
2022/10/09 03:58:46;;;;;;;4.72;2.75;;;;;;;6.98;60.99;101853.72;5088584;28;20024;-27
2022/10/09 04:01:11;;;;;;;4.43;2.80;;;;;;;6.96;61.17;101858.94;5090946;28;20027;-27
2022/10/09 04:03:36;;;;;;;4.47;2.72;;;;;;;6.95;61.44;101858.91;5090507;28;20032;-27
2022/10/09 04:06:02;;;;;;;3.97;2.85;;;;;;;6.90;61.30;101856.16;5092065;28;20045;-27
2022/10/09 04:08:28;;;;;;;4.35;2.78;;;;;;;6.89;61.41;101864.88;5083631;28;20024;-27
2022/10/09 04:10:57;;;;;;;3.95;2.70;;;;;;;6.86;61.70;101855.19;5087204;28;20031;-27
2022/10/09 04:13:22;;;;;;;4.78;2.83;;;;;;;6.82;61.40;101852.44;5090158;28;20507;-27
2022/10/09 04:15:49;;;;;;;3.22;2.70;;;;;;;6.82;61.30;101857.69;5091615;28;20024;-27
2022/10/09 04:18:15;;;;;;;5.15;2.80;;;;;;;6.80;61.29;101861.19;5087495;28;20037;-27
2022/10/09 04:20:47;;;;;;;4.00;2.70;;;;;;;6.80;60.93;101861.19;5088501;28;20442;-27
2022/10/09 04:23:12;;;;;;;4.85;2.70;;;;;;;6.77;61.14;101861.09;5092222;28;20345;-27
2022/10/09 04:25:37;;;;;;;4.13;2.73;;;;;;;6.75;61.00;101865.44;5082723;28;20103;-27
2022/10/09 04:28:03;;;;;;;3.58;2.63;;;;;;;6.73;61.21;101867.09;5087770;28;20385;-27
2022/10/09 04:30:28;;;;;;;3.58;2.67;;;;;;;6.70;61.35;101874.88;5092356;28;20020;-27
2022/10/09 04:32:53;;;;;;;4.63;2.38;;;;;;;6.69;61.18;101878.38;5091025;28;20027;-27
2022/10/09 04:35:19;;;;;;;4.15;2.58;;;;;;;6.67;61.45;101875.69;5089383;28;20024;-27
2022/10/09 04:37:44;;;;;;;4.07;2.80;;;;;;;6.66;61.15;101884.41;5089299;28;20027;-27
2022/10/09 04:40:09;;;;;;;4.00;2.90;;;;;;;6.65;61.52;101892.25;5071364;28;20494;-27
2022/10/09 04:42:35;;;;;;;3.50;2.40;;;;;;;6.64;61.44;101880.00;5083245;28;20861;-27
2022/10/09 04:45:00;;;;;;;4.10;2.92;;;;;;;6.61;61.18;101869.41;5085519;28;20024;-27
2022/10/09 04:47:26;;;;;;;4.63;2.80;;;;;;;6.59;61.58;101881.56;5087262;28;20035;-27
2022/10/09 04:49:51;;;;;;;4.82;2.95;;;;;;;6.56;61.69;101882.38;5086896;28;20370;-27
2022/10/09 04:52:16;;;;;;;4.25;2.53;;;;;;;6.51;61.65;101884.88;5090271;28;20089;-27
2022/10/09 04:54:42;;;;;;;4.10;2.42;;;;;;;6.51;61.72;101879.63;5088337;28;20111;-27
2022/10/09 04:57:07;;;;;;;4.80;3.28;;;;;;;6.46;61.57;101876.00;5086009;28;20115;-27
2022/10/09 04:59:32;;;;;;;4.03;2.67;;;;;;;6.45;61.63;101878.59;5088531;28;20133;-27
2022/10/09 05:01:58;;;;;;;3.65;2.67;;;;;;;6.43;61.59;101881.16;5085226;28;20015;-27
2022/10/09 05:04:23;;;;;;;5.57;3.00;;;;;;;6.42;61.33;101884.63;5054233;28;20024;-27
2022/10/09 05:06:49;;;;;;;4.85;2.83;;;;;;;6.40;61.56;101881.97;5081829;28;20394;-27
2022/10/09 05:09:14;;;;;;;3.88;2.63;;;;;;;6.39;61.61;101879.31;5090730;28;20095;-27
2022/10/09 05:11:39;;;;;;;4.13;2.65;;;;;;;6.36;61.62;101881.84;5087742;28;20454;-27
2022/10/09 05:14:05;;;;;;;4.28;2.63;;;;;;;6.32;61.28;101882.59;5082129;28;20372;-27
2022/10/09 05:16:31;;;;;;;4.70;2.97;;;;;;;6.31;61.84;101886.06;5088921;28;20040;-27
2022/10/09 05:18:57;;;;;;;4.82;2.80;;;;;;;6.31;61.67;101891.31;5068416;28;20028;-27
2022/10/09 05:21:23;;;;;;;4.82;3.03;;;;;;;6.29;61.46;101891.25;5070030;28;20665;-27
2022/10/09 05:23:49;;;;;;;4.60;3.20;;;;;;;6.25;61.64;101882.44;5086287;28;20152;-27
2022/10/09 05:26:19;;;;;;;6.82;3.08;;;;;;;6.22;61.49;101877.09;5069723;28;20032;-27
2022/10/09 05:28:44;;;;;;;;;;;;;;;6.19;62.03;101887.50;5095364;28;20110;-27
2022/10/09 05:31:16;;;;;;;4.93;3.20;;;;;;;6.15;62.15;101880.41;5085744;28;20007;-27
2022/10/09 05:33:41;;;;;;;6.70;3.53;;;;;;;6.12;61.69;101886.44;5088520;28;20134;-27
2022/10/09 05:36:06;;;;;;;5.93;3.67;;;;;;;6.11;62.02;101882.03;5079964;28;20535;-27
2022/10/09 05:38:33;;;;;;;6.20;3.40;;;;;;;6.08;61.84;101871.47;5067664;28;20398;-27
2022/10/09 05:41:01;;;;;;;4.55;3.20;;;;;;;6.08;62.03;101873.19;5084664;28;20040;-27
2022/10/09 05:43:28;;;;;;;4.93;3.25;;;;;;;6.05;62.29;101873.09;5080667;28;20028;-27
2022/10/09 05:45:54;;;;;;;5.40;3.25;;;;;;;6.03;62.04;101884.44;5064887;28;20034;-27
2022/10/09 05:48:19;;;;;;;4.93;3.28;;;;;;;6.00;62.09;101876.44;5086590;28;20110;-27
2022/10/09 05:50:45;;;;;;;4.72;3.22;;;;;;;5.98;61.86;101886.00;5079191;28;20231;-27
2022/10/09 05:53:10;;;;;;;4.95;3.22;;;;;;;5.95;62.44;101880.66;5080580;28;20481;-27
2022/10/09 05:55:35;;;;;;;6.00;3.47;;;;;;;5.94;62.18;101884.16;5083763;28;20031;-27
2022/10/09 05:58:01;;;;;;;4.93;3.22;;;;;;;5.91;62.37;101887.53;5083552;28;20028;-27
2022/10/09 06:00:26;;;;;;;4.40;2.95;;;;;;;5.88;62.37;101884.84;5079366;28;20035;-27
2022/10/09 06:02:52;;;;;;;4.90;3.28;;;;;;;5.88;62.35;101902.28;5081752;28;20518;-27
2022/10/09 06:05:17;;;;;;;5.00;2.92;;;;;;;5.86;62.27;101893.47;5062408;28;20024;-27
2022/10/09 06:07:45;;;;;;;4.75;3.30;;;;;;;5.88;62.68;101902.28;5078982;28;20106;-27
2022/10/09 06:10:10;;;;;;;4.68;3.15;;;;;;;5.86;62.70;101906.56;5060197;28;20044;-27
2022/10/09 06:12:36;;;;;;;4.32;2.85;;;;;;;5.83;62.65;101904.75;5086328;28;20062;-27
2022/10/09 06:15:01;;;;;;;4.07;3.10;;;;;;;5.87;62.34;101909.22;5085636;28;20036;-27
2022/10/09 06:17:26;;;;;;;6.20;3.55;;;;;;;5.84;62.88;101909.13;5087085;28;20056;-27
2022/10/09 06:19:52;;;;;;;4.65;3.28;;;;;;;5.84;62.83;101905.66;5064625;28;21244;-27
2022/10/09 06:22:17;;;;;;;4.95;3.03;;;;;;;5.83;62.62;101909.97;5073493;28;20039;-27
2022/10/09 06:24:42;;;;;;;4.88;3.10;;;;;;;5.82;62.72;101907.31;5073168;28;20529;-27
2022/10/09 06:27:09;;;;;;;4.90;3.17;;;;;;;5.80;62.81;101909.03;5080417;28;20374;-27
2022/10/09 06:29:35;;;;;;;4.22;2.80;;;;;;;5.83;62.82;101914.34;5067211;28;20300;-27
2022/10/09 06:32:00;;;;;;;4.47;2.70;;;;;;;5.83;63.14;101920.47;5084961;28;20028;-27
2022/10/09 06:34:26;;;;;;;4.53;2.97;;;;;;;5.87;63.88;101921.47;5082806;28;20028;-27
2022/10/09 06:36:51;;;;;;;4.55;2.83;;;;;;;5.87;63.63;101921.47;5089151;28;20044;-27
2022/10/09 06:39:17;;;;;;;4.78;3.00;;;;;;;5.89;63.86;101925.00;5088692;28;20067;-27
2022/10/09 06:41:42;;;;;;;4.05;3.03;;;;;;;5.89;63.13;101917.13;5091083;28;20385;-27
2022/10/09 06:44:10;;;;;;;4.88;2.97;;;;;;;5.93;63.52;101920.75;5069154;28;20028;-27
2022/10/09 06:46:38;;;;;;;4.40;2.50;;;;;;;5.92;63.21;101917.25;5091347;28;20024;-27
2022/10/09 06:49:05;;;;;;;4.30;2.90;;;;;;;5.94;63.82;101928.66;5093793;28;20028;-27
2022/10/09 06:51:31;;;;;;;3.63;2.40;;;;;;;5.95;63.53;101930.44;5083717;28;20038;-27
2022/10/09 06:53:59;;;;;;;5.50;3.08;;;;;;;5.98;63.39;101925.28;5082368;28;20024;-27
2022/10/09 06:56:28;;;;;;;4.05;2.88;;;;;;;6.03;63.80;101934.19;5090225;28;20024;-27
2022/10/09 06:58:54;;;;;;;4.57;2.85;;;;;;;6.11;64.77;101931.78;5069117;28;20031;-27
2022/10/09 07:01:25;;;;;;;4.55;3.10;;;;;;;6.16;64.93;101930.22;5092866;28;20104;-27
2022/10/09 07:03:56;;;;;;;4.63;3.10;;;;;;;6.22;65.71;101929.50;5093280;28;20032;-27
2022/10/09 07:06:29;;;;;;;5.07;2.97;;;;;;;6.26;65.54;101933.09;5089413;28;20056;-27
2022/10/09 07:09:04;;;;;;;5.13;3.50;;;;;;;6.31;66.94;101943.72;5069761;28;20020;-27
2022/10/09 07:11:33;;;;;;;4.60;3.38;;;;;;;6.35;66.55;101940.34;5069858;28;20108;-27
2022/10/09 07:14:00;;;;;;;5.30;3.13;;;;;;;6.37;65.08;101941.28;5089846;28;20512;-27
2022/10/09 07:16:33;;;;;;;3.80;2.83;;;;;;;6.41;64.65;101941.41;5088923;28;20059;-27
2022/10/09 07:19:02;;;;;;;4.90;3.30;;;;;;;6.44;64.86;101951.09;5089474;28;20028;-27
2022/10/09 07:21:28;;;;;;;4.32;2.90;;;;;;;6.48;64.34;101942.47;5085237;28;20462;-27
2022/10/09 07:23:53;;;;;;;4.93;3.20;;;;;;;6.52;64.00;101944.34;5066894;28;20029;-27
2022/10/09 07:26:24;;;;;;;4.45;2.75;;;;;;;6.57;63.67;101948.81;5086301;28;20021;-27
2022/10/09 07:28:51;;;;;;;4.97;3.20;;;;;;;6.62;64.65;101965.56;5083518;28;20082;-27
2022/10/09 07:31:17;;;;;;;6.72;2.70;;;;;;;6.67;64.69;101962.22;5070456;28;20057;-27
2022/10/09 07:33:42;;;;;;;5.68;2.90;;;;;;;6.74;63.86;101960.66;5087976;28;20540;-27
2022/10/09 07:36:09;;;;;;;5.63;2.80;;;;;;;6.80;63.97;101963.44;5090400;28;20024;-27
2022/10/09 07:38:35;;;;;;;5.28;2.97;;;;;;;6.87;63.64;101959.25;5081546;28;20118;-27
2022/10/09 07:41:05;;;;;;;4.30;3.17;;;;;;;6.93;63.82;101959.44;5089922;28;20555;-27
2022/10/09 07:43:33;;;;;;;4.60;2.92;;;;;;;7.01;63.73;101964.00;5087035;28;20215;-27
2022/10/09 07:46:00;;;;;;;4.72;2.78;;;;;;;7.08;63.65;101960.69;5081584;28;20123;-27
2022/10/09 07:48:26;;;;;;;5.60;3.08;;;;;;;7.16;63.36;101951.28;5088741;28;20073;-27
2022/10/09 07:50:52;;;;;;;6.05;3.05;;;;;;;7.24;63.41;101954.06;5085529;28;20418;-27
2022/10/09 07:53:17;;;;;;;4.78;2.97;;;;;;;7.33;63.64;101953.44;5083344;28;20032;-27
2022/10/09 07:55:47;;;;;;;5.13;3.05;;;;;;;7.42;63.16;101952.78;5090178;28;20062;-27
2022/10/09 07:58:14;;;;;;;5.15;3.30;;;;;;;7.51;63.09;101954.75;5081392;28;20032;-27
2022/10/09 08:00:39;;;;;;;4.90;3.13;;;;;;;7.57;62.87;101963.66;5087571;28;20020;-27
2022/10/09 08:03:05;;;;;;;4.53;3.10;;;;;;;7.65;63.00;101961.22;5086736;28;20470;-27
2022/10/09 08:05:31;;;;;;;4.90;3.42;;;;;;;7.75;62.76;101958.78;5087830;28;20028;-27
2022/10/09 08:07:56;;;;;;;4.43;2.80;;;;;;;7.83;62.69;101960.75;5081466;28;20020;-27
2022/10/09 08:10:22;;;;;;;4.40;3.15;;;;;;;7.91;62.99;101958.28;5088934;28;20024;-27
2022/10/09 08:13:00;;;;;;;5.53;3.30;;;;;;;8.00;62.91;101948.88;5087507;28;20103;-27
2022/10/09 08:15:26;;;;;;;5.15;3.22;;;;;;;8.06;63.00;101952.50;5085026;28;20024;-27
2022/10/09 08:17:52;;;;;;;4.50;3.05;;;;;;;8.16;62.77;101944.81;5083485;28;20553;-27
2022/10/09 08:20:18;;;;;;;5.03;3.10;;;;;;;8.24;62.65;101951.13;5089146;28;20043;-27
2022/10/09 08:22:43;;;;;;;4.65;3.13;;;;;;;8.31;62.99;101954.78;5090826;28;20032;-27
2022/10/09 08:25:09;;;;;;;4.55;2.95;;;;;;;8.38;62.81;101955.78;5084400;28;20422;-27
2022/10/09 08:27:54;;;;;;;5.85;3.20;;;;;;;8.47;62.82;101961.22;5085741;28;20522;-27
2022/10/09 08:30:20;;;;;;;5.20;2.90;;;;;;;8.55;62.64;101959.69;5085489;28;20290;-27
2022/10/09 08:32:45;;;;;;;5.20;3.47;;;;;;;8.63;62.96;101959.81;5088734;28;20070;-27
2022/10/09 08:35:11;;;;;;;6.47;3.20;;;;;;;8.70;63.02;101959.09;5088209;28;20442;-27
2022/10/09 08:37:36;;;;;;;5.05;3.15;;;;;;;8.77;63.52;101959.22;5090792;28;20028;-27
2022/10/09 08:40:03;;;;;;;5.47;3.10;;;;;;;8.85;64.04;101963.78;5085821;28;20158;-27
2022/10/09 08:42:39;;;;;;;5.82;3.22;;;;;;;8.92;64.24;101961.22;5086732;28;20028;-27
2022/10/09 08:45:05;;;;;;;6.47;3.10;;;;;;;9.03;65.21;101957.06;5082851;28;20077;-27
2022/10/09 08:47:44;;;;;;;6.88;3.10;;;;;;;9.10;64.73;101952.78;5070797;28;20024;-27
2022/10/09 08:50:21;;;;;;;7.43;3.97;;;;;;;9.19;64.54;101963.50;5057635;28;20031;-27
2022/10/09 08:52:50;;;;;;;5.85;3.30;;;;;;;9.28;64.75;101959.22;5086613;28;20042;-27
2022/10/09 08:55:30;;;;;;;6.60;3.30;;;;;;;9.35;64.59;101958.47;5089159;28;20031;-27
2022/10/09 08:58:01;;;;;;;5.72;3.15;;;;;;;9.44;64.47;101966.53;5070748;28;20032;-27
2022/10/09 09:00:55;;;;;;;5.63;3.28;;;;;;;9.54;64.98;101966.69;5085397;28;20047;-27
2022/10/09 09:03:50;;;;;;;5.85;3.10;;;;;;;9.62;65.02;101963.31;5056913;28;20036;-27
2022/10/09 09:06:28;;;;;;;5.07;2.97;;;;;;;9.70;64.83;101971.31;5084855;28;20437;-27
2022/10/09 09:09:13;;;;;;;5.68;3.38;;;;;;;9.81;65.78;101974.16;5088251;28;20557;-27
2022/10/09 09:11:47;;;;;;;5.30;2.85;;;;;;;9.92;65.37;101957.56;5087637;28;20024;-27
2022/10/09 09:14:25;;;;;;;5.28;2.70;;;;;;;10.04;65.41;101956.88;5090870;28;20016;-27
2022/10/09 09:17:29;;;;;;;5.07;2.80;;;;;;;10.16;65.96;101959.66;5085927;28;20387;-27
2022/10/09 09:20:00;;;;;;;5.07;2.40;;;;;;;10.28;66.79;101953.69;5088095;28;20446;-27
2022/10/09 09:22:26;;;;;;;5.65;2.53;;;;;;;10.46;68.90;101946.88;5089906;28;20051;-29
2022/10/09 09:24:54;;;;;;;7.35;2.67;;;;;;;10.53;68.25;101948.72;5072488;28;20064;-27
2022/10/09 09:27:31;;;;;;;4.18;2.60;;;;;;;10.62;67.96;101948.84;5090283;28;20400;-27
2022/10/09 09:30:16;;;;;;;5.80;2.40;;;;;;;10.73;67.96;101946.31;5079179;28;20020;-27
2022/10/09 09:32:53;;;;;;;7.30;2.50;;;;;;;10.82;66.60;101950.81;5088224;28;20024;-27
2022/10/09 09:35:45;;;;;;;7.47;2.45;;;;;;;10.94;67.02;101943.88;5069782;28;20378;-27
2022/10/09 09:38:14;;;;;;;5.55;1.83;;;;;;;11.22;70.54;101944.13;5087030;28;20046;-28
2022/10/09 09:40:40;;;;;;;6.65;1.75;;;;;;;11.61;71.03;101945.31;5088085;28;20085;-28
2022/10/09 09:43:15;;;;;;;7.30;2.20;;;;;;;11.88;69.70;101934.91;5068640;28;20020;-28
2022/10/09 09:45:42;;;;;;;5.90;1.77;;;;;;;12.14;70.14;101931.56;5089467;28;20024;-28
2022/10/09 09:48:19;;;;;;;7.38;1.65;;;;;;;12.40;69.38;101934.31;5062359;28;20174;-28
2022/10/09 09:50:45;;;;;;;5.35;1.58;;;;;;;12.63;68.26;101919.34;5069153;28;20023;-28
2022/10/09 09:53:29;;;;;;;7.80;2.25;;;;;;;12.83;68.02;101928.25;5071748;28;20390;-28
2022/10/09 09:55:55;;;;;;;4.60;1.50;;;;;;;13.07;66.80;101926.50;5080812;28;20067;-28
2022/10/09 09:58:21;;;;;;;7.97;2.15;;;;;;;13.23;66.39;101922.97;5088599;28;20077;-28
2022/10/09 10:01:02;;;;;;;5.60;1.75;;;;;;;13.40;65.92;101918.53;5089480;28;20047;-28
2022/10/09 10:03:29;;;;;;;4.80;1.50;;;;;;;13.52;65.69;101914.13;5068696;28;20032;-28
2022/10/09 10:05:55;;;;;;;6.50;1.63;;;;;;;13.65;65.67;101907.94;5078199;28;20529;-27
2022/10/09 10:08:24;;;;;;;6.80;2.03;;;;;;;13.86;64.98;101903.47;5081653;28;20111;-27
2022/10/09 10:10:52;;;;;;;6.32;1.50;;;;;;;14.03;64.07;101907.81;5083725;28;20027;-27
2022/10/09 10:13:48;;;;;;;5.20;1.45;;;;;;;14.19;63.93;101898.03;5090657;28;20078;-27
2022/10/09 10:16:23;;;;;;;9.07;2.08;;;;;;;14.30;64.08;101895.34;5065726;28;20024;-27
2022/10/09 10:18:48;;;;;;;7.18;1.83;;;;;;;14.41;63.68;101893.50;5091051;28;20553;-27
2022/10/09 10:21:16;;;;;;;4.95;2.00;;;;;;;14.61;63.00;101887.19;5084973;28;20116;-28
2022/10/09 10:24:05;;;;;;;7.45;1.70;;;;;;;14.75;62.16;101885.28;5084662;28;20057;-28
2022/10/09 10:26:50;;;;;;;4.75;1.75;;;;;;;14.83;62.40;101889.72;5069565;28;20127;-28
2022/10/09 10:29:22;;;;;;;5.55;1.90;;;;;;;14.98;61.85;101883.41;5065658;28;20032;-28
2022/10/09 10:31:53;;;;;;;6.75;2.17;;;;;;;15.10;61.18;101877.97;5066935;28;20027;-28
2022/10/09 10:34:28;;;;;;;7.20;2.00;;;;;;;15.23;61.20;101878.75;5090746;28;20031;-29
2022/10/09 10:37:14;;;;;;;7.18;1.98;;;;;;;15.38;59.74;101882.16;5072903;28;20116;-28
2022/10/09 10:39:51;;;;;;;5.72;1.77;;;;;;;15.47;59.58;101876.75;5092783;28;20438;-28
2022/10/09 10:42:21;;;;;;;5.68;1.40;;;;;;;15.54;57.79;101876.69;5055962;28;20266;-28
2022/10/09 10:45:03;;;;;;;4.82;1.45;;;;;;;15.65;58.42;101862.38;5086725;28;20115;-29
2022/10/09 10:47:32;;;;;;;4.93;1.75;;;;;;;15.76;59.12;101872.91;5089329;28;20482;-28
2022/10/09 10:49:58;;;;;;;5.53;2.00;;;;;;;15.90;58.61;101858.53;5087167;28;20036;-28
2022/10/09 10:52:32;;;;;;;5.93;1.77;;;;;;;15.96;57.98;101862.94;5088643;28;20183;-28
2022/10/09 10:54:58;;;;;;;4.35;1.63;;;;;;;15.98;56.65;101854.06;5084484;28;20055;-29
2022/10/09 10:58:00;;;;;;;5.82;1.65;;;;;;;16.10;56.99;101850.31;5089280;28;20058;-27
2022/10/09 11:00:27;;;;;;;4.93;1.33;;;;;;;16.20;57.09;101853.75;5069993;28;20093;-29
2022/10/09 11:03:06;;;;;;;6.20;1.60;;;;;;;16.32;56.72;101849.16;5085288;28;20307;-28
2022/10/09 11:05:50;;;;;;;4.80;1.25;;;;;;;16.42;55.48;101843.69;5079484;28;20024;-28
2022/10/09 11:08:16;;;;;;;3.95;1.88;;;;;;;16.55;54.83;101843.50;5093063;28;20360;-29
2022/10/09 11:10:47;;;;;;;5.85;1.35;;;;;;;16.56;55.11;101837.25;5089463;28;20032;-28
2022/10/09 11:13:13;;;;;;;5.78;1.42;;;;;;;16.61;55.24;101829.19;5089896;28;20074;-28
2022/10/09 11:15:55;;;;;;;5.80;1.67;;;;;;;16.70;54.14;101834.38;5083776;28;20028;-28
2022/10/09 11:18:35;;;;;;;3.88;1.25;;;;;;;16.84;53.81;101835.94;5087189;28;20028;-28
2022/10/09 11:21:19;;;;;;;3.50;1.40;;;;;;;16.88;53.65;101832.31;5083395;28;20028;-28
2022/10/09 11:24:11;;;;;;;6.13;1.30;;;;;;;16.79;54.37;101825.34;5093282;28;20482;-28
2022/10/09 11:26:56;;;;;;;4.78;1.42;;;;;;;16.84;53.42;101826.13;5087980;28;20024;-27
2022/10/09 11:29:26;;;;;;;3.90;1.40;;;;;;;16.95;52.37;101817.09;5072424;28;20375;-27
2022/10/09 11:32:18;;;;;;;4.63;1.50;;;;;;;17.02;53.59;101814.28;5097154;28;20089;-28
2022/10/09 11:34:51;;;;;;;4.82;1.48;;;;;;;17.12;53.48;101814.16;5082510;28;20036;-28
2022/10/09 11:37:21;;;;;;;7.63;1.27;;;;;;;17.18;53.61;101808.72;5067648;28;20020;-27
2022/10/09 11:39:47;;;;;;;4.13;1.40;;;;;;;17.26;52.73;101800.56;5070777;28;20024;-27
2022/10/09 11:42:17;;;;;;;4.80;1.30;;;;;;;17.29;52.59;101790.72;5090426;28;20028;-27